createdAt,value
2022-08-29T00:00:04.995Z,19.00
2022-08-29T00:01:08.660Z,19.00
2022-08-29T00:02:10.982Z,19.00
2022-08-29T00:03:13.152Z,19.00
2022-08-29T00:04:15.231Z,19.00
2022-08-29T00:05:24.872Z,18.90
2022-08-29T00:06:26.808Z,18.90
2022-08-29T00:07:28.276Z,18.90
2022-08-29T00:08:30.192Z,18.90
2022-08-29T00:09:31.692Z,18.90
2022-08-29T00:10:35.680Z,18.90
2022-08-29T00:11:37.244Z,18.90
2022-08-29T00:12:45.404Z,18.90
2022-08-29T00:13:47.226Z,18.80
2022-08-29T00:14:49.084Z,18.90
2022-08-29T00:15:50.807Z,18.80
2022-08-29T00:16:52.388Z,18.80
2022-08-29T00:17:54.027Z,18.80
2022-08-29T00:18:55.880Z,18.80
2022-08-29T00:19:58.122Z,18.80
2022-08-29T00:20:59.906Z,18.70
2022-08-29T00:22:01.614Z,18.70
2022-08-29T00:23:06.158Z,18.70
2022-08-29T00:24:07.908Z,18.60
2022-08-29T00:25:11.919Z,18.60
2022-08-29T00:26:14.208Z,18.60
2022-08-29T00:27:15.770Z,18.60
2022-08-29T00:28:17.247Z,18.60
2022-08-29T00:29:19.013Z,18.60
2022-08-29T00:30:22.584Z,18.60
2022-08-29T00:31:24.354Z,18.60
2022-08-29T00:32:26.065Z,18.60
2022-08-29T00:33:28.390Z,18.50
2022-08-29T00:34:30.075Z,18.50
2022-08-29T00:35:35.157Z,18.40
2022-08-29T00:36:37.613Z,18.40
2022-08-29T00:37:40.286Z,18.40
2022-08-29T00:38:42.083Z,18.30
2022-08-29T00:39:45.053Z,18.30
2022-08-29T00:40:51.684Z,18.30
2022-08-29T00:41:54.005Z,18.40
2022-08-29T00:42:55.628Z,18.40
2022-08-29T00:43:57.163Z,18.30
2022-08-29T00:44:58.853Z,18.30
2022-08-29T00:46:19.235Z,18.20
2022-08-29T00:47:26.940Z,18.20
2022-08-29T00:48:30.062Z,18.20
2022-08-29T00:49:41.489Z,18.20
2022-08-29T00:50:48.638Z,18.10
2022-08-29T00:51:51.109Z,18.10
2022-08-29T00:52:55.167Z,18.20
2022-08-29T00:54:01.786Z,18.10
2022-08-29T00:55:10.154Z,18.10
2022-08-29T00:56:15.001Z,18.10
2022-08-29T00:57:19.886Z,18.10
2022-08-29T00:58:44.724Z,18.10
2022-08-29T00:59:47.533Z,18.00
2022-08-29T01:00:49.818Z,18.00
2022-08-29T01:01:51.447Z,17.90
2022-08-29T01:02:54.376Z,17.90
2022-08-29T01:03:56.471Z,17.90
2022-08-29T01:04:59.957Z,17.90
2022-08-29T01:06:03.415Z,17.80
2022-08-29T01:07:06.218Z,17.80
2022-08-29T01:08:07.931Z,17.80
2022-08-29T01:09:10.766Z,17.80
2022-08-29T01:10:33.058Z,17.80
2022-08-29T01:11:53.881Z,17.80
2022-08-29T01:12:55.434Z,17.80
2022-08-29T01:13:57.422Z,17.80
2022-08-29T01:15:04.435Z,17.70
2022-08-29T01:16:08.148Z,17.70
2022-08-29T01:17:10.718Z,17.70
2022-08-29T01:18:15.569Z,17.70
2022-08-29T01:19:41.217Z,17.70
2022-08-29T01:20:54.580Z,17.70
2022-08-29T01:22:35.303Z,17.70
2022-08-29T01:24:11.721Z,17.70
2022-08-29T01:25:19.562Z,17.60
2022-08-29T01:26:23.044Z,17.60
2022-08-29T01:27:29.791Z,17.60
2022-08-29T01:28:37.978Z,17.50
2022-08-29T01:29:40.299Z,17.50
2022-08-29T01:31:38.637Z,17.50
2022-08-29T01:32:43.002Z,17.50
2022-08-29T01:33:56.758Z,17.50
2022-08-29T01:34:58.758Z,17.50
2022-08-29T01:36:00.247Z,17.50
2022-08-29T01:37:04.659Z,17.40
2022-08-29T01:38:06.471Z,17.50
2022-08-29T01:39:08.247Z,17.40
2022-08-29T01:40:12.246Z,17.40
2022-08-29T01:41:14.237Z,17.30
2022-08-29T01:42:22.799Z,17.40
2022-08-29T01:43:25.408Z,17.30
2022-08-29T01:44:27.402Z,17.30
2022-08-29T01:45:29.603Z,17.30
2022-08-29T01:46:34.611Z,17.30
2022-08-29T01:47:37.835Z,17.30
2022-08-29T01:48:41.824Z,17.30
2022-08-29T01:49:43.359Z,17.20
2022-08-29T01:50:46.688Z,17.30
2022-08-29T01:51:48.723Z,17.40
2022-08-29T01:52:50.520Z,17.30
2022-08-29T01:53:53.256Z,17.30
2022-08-29T01:54:54.983Z,17.40
2022-08-29T01:55:56.837Z,17.30
2022-08-29T01:56:58.754Z,17.30
2022-08-29T01:58:00.671Z,17.30
2022-08-29T01:59:05.786Z,17.30
2022-08-29T02:00:10.550Z,17.30
2022-08-29T02:01:15.425Z,17.30
2022-08-29T02:02:27.621Z,17.30
2022-08-29T02:03:29.408Z,17.30
2022-08-29T02:04:31.798Z,17.30
2022-08-29T02:05:34.415Z,17.20
2022-08-29T02:06:36.804Z,17.30
2022-08-29T02:07:38.371Z,17.30
2022-08-29T02:08:42.337Z,17.30
2022-08-29T02:09:45.652Z,17.30
2022-08-29T02:10:48.199Z,17.20
2022-08-29T02:11:50.015Z,17.20
2022-08-29T02:12:53.939Z,17.20
2022-08-29T02:13:57.723Z,17.20
2022-08-29T02:14:59.815Z,17.10
2022-08-29T02:16:01.483Z,17.20
2022-08-29T02:17:05.125Z,17.20
2022-08-29T02:18:06.588Z,17.10
2022-08-29T02:19:08.826Z,17.10
2022-08-29T02:20:10.687Z,17.20
2022-08-29T02:21:15.249Z,17.20
2022-08-29T02:22:17.397Z,17.20
2022-08-29T02:23:30.592Z,17.20
2022-08-29T02:24:33.137Z,17.20
2022-08-29T02:25:43.849Z,17.10
2022-08-29T02:26:45.701Z,17.10
2022-08-29T02:27:47.649Z,17.10
2022-08-29T02:28:52.873Z,17.10
2022-08-29T02:29:55.050Z,17.10
2022-08-29T02:30:56.995Z,17.10
2022-08-29T02:31:58.719Z,17.10
2022-08-29T02:33:00.567Z,17.10
2022-08-29T02:34:05.006Z,17.10
2022-08-29T02:35:07.561Z,17.10
2022-08-29T02:36:11.409Z,17.00
2022-08-29T02:37:13.274Z,17.00
2022-08-29T02:38:16.019Z,17.00
2022-08-29T02:39:18.339Z,17.00
2022-08-29T02:40:20.025Z,16.90
2022-08-29T02:41:26.204Z,17.00
2022-08-29T02:42:27.918Z,17.00
2022-08-29T02:43:29.488Z,16.90
2022-08-29T02:44:31.724Z,16.90
2022-08-29T02:45:35.816Z,16.90
2022-08-29T02:46:37.779Z,16.90
2022-08-29T02:47:39.366Z,16.90
2022-08-29T02:48:41.183Z,16.80
2022-08-29T02:49:49.231Z,16.80
2022-08-29T02:50:54.256Z,16.80
2022-08-29T02:51:56.636Z,16.90
2022-08-29T02:52:58.857Z,16.90
2022-08-29T02:54:01.549Z,16.90
2022-08-29T02:55:03.353Z,16.90
2022-08-29T02:56:05.153Z,16.80
2022-08-29T02:57:09.790Z,16.80
2022-08-29T02:58:11.597Z,16.80
2022-08-29T02:59:14.302Z,16.90
2022-08-29T03:00:21.770Z,16.80
2022-08-29T03:01:24.148Z,16.90
2022-08-29T03:02:25.857Z,16.90
2022-08-29T03:03:27.942Z,16.90
2022-08-29T03:04:29.655Z,16.90
2022-08-29T03:05:34.934Z,16.90
2022-08-29T03:06:36.390Z,16.90
2022-08-29T03:07:38.115Z,16.90
2022-08-29T03:08:40.589Z,16.90
2022-08-29T03:09:42.659Z,16.90
2022-08-29T03:10:44.338Z,16.80
2022-08-29T03:11:46.276Z,16.80
2022-08-29T03:12:47.857Z,16.80
2022-08-29T03:13:49.320Z,16.80
2022-08-29T03:14:51.421Z,16.80
2022-08-29T03:15:53.814Z,16.80
2022-08-29T03:16:55.852Z,16.80
2022-08-29T03:17:58.326Z,16.90
2022-08-29T03:18:59.790Z,16.90
2022-08-29T03:20:02.350Z,16.80
2022-08-29T03:21:04.671Z,16.80
2022-08-29T03:22:06.107Z,16.80
2022-08-29T03:23:08.357Z,16.80
2022-08-29T03:24:10.192Z,16.80
2022-08-29T03:25:12.744Z,16.80
2022-08-29T03:26:14.815Z,16.80
2022-08-29T03:27:16.293Z,16.70
2022-08-29T03:28:17.898Z,16.70
2022-08-29T03:29:19.442Z,16.70
2022-08-29T03:30:24.095Z,16.70
2022-08-29T03:31:25.732Z,16.70
2022-08-29T03:32:27.903Z,16.60
2022-08-29T03:33:29.526Z,16.60
2022-08-29T03:34:33.006Z,16.60
2022-08-29T03:35:34.516Z,16.50
2022-08-29T03:36:36.047Z,16.60
2022-08-29T03:37:38.330Z,16.60
2022-08-29T03:38:39.884Z,16.50
2022-08-29T03:39:41.480Z,16.60
2022-08-29T03:40:43.042Z,16.60
2022-08-29T03:41:44.556Z,16.60
2022-08-29T03:42:47.666Z,16.60
2022-08-29T03:43:49.197Z,16.50
2022-08-29T03:44:50.679Z,16.50
2022-08-29T03:45:52.831Z,16.50
2022-08-29T03:46:54.450Z,16.50
2022-08-29T03:47:55.930Z,16.50
2022-08-29T03:48:57.436Z,16.50
2022-08-29T03:49:58.880Z,16.40
2022-08-29T03:51:00.535Z,16.50
2022-08-29T03:52:02.965Z,16.50
2022-08-29T03:53:04.481Z,16.50
2022-08-29T03:54:06.820Z,16.50
2022-08-29T03:55:09.153Z,16.50
2022-08-29T03:56:18.149Z,16.40
2022-08-29T03:57:20.511Z,16.40
2022-08-29T03:58:22.056Z,16.40
2022-08-29T03:59:24.542Z,16.40
2022-08-29T04:00:26.326Z,16.40
2022-08-29T04:01:29.671Z,16.30
2022-08-29T04:02:31.581Z,16.30
2022-08-29T04:03:33.203Z,16.30
2022-08-29T04:04:53.516Z,16.30
2022-08-29T04:05:55.209Z,16.40
2022-08-29T04:06:56.922Z,16.40
2022-08-29T04:07:59.603Z,16.30
2022-08-29T04:09:01.118Z,16.30
2022-08-29T04:10:08.458Z,16.30
2022-08-29T04:11:11.214Z,16.30
2022-08-29T04:12:13.740Z,16.20
2022-08-29T04:13:15.872Z,16.20
2022-08-29T04:14:18.369Z,16.20
2022-08-29T04:15:21.123Z,16.10
2022-08-29T04:16:31.188Z,16.20
2022-08-29T04:17:33.419Z,16.20
2022-08-29T04:18:34.845Z,16.20
2022-08-29T04:19:37.106Z,16.20
2022-08-29T04:20:41.699Z,16.20
2022-08-29T04:21:43.224Z,16.20
2022-08-29T04:22:45.419Z,16.10
2022-08-29T04:23:48.064Z,16.20
2022-08-29T04:24:49.694Z,16.20
2022-08-29T04:25:59.110Z,16.10
2022-08-29T04:27:13.108Z,16.20
2022-08-29T04:28:17.795Z,16.10
2022-08-29T04:29:19.272Z,16.20
2022-08-29T04:30:24.547Z,16.10
2022-08-29T04:31:26.330Z,16.20
2022-08-29T04:32:28.068Z,16.20
2022-08-29T04:33:29.912Z,16.20
2022-08-29T04:34:32.086Z,16.20
2022-08-29T04:35:37.234Z,16.20
2022-08-29T04:36:43.432Z,16.30
2022-08-29T04:37:45.642Z,16.20
2022-08-29T04:38:47.091Z,16.20
2022-08-29T04:39:48.536Z,16.20
2022-08-29T04:40:50.600Z,16.20
2022-08-29T04:41:52.610Z,16.20
2022-08-29T04:42:54.485Z,16.20
2022-08-29T04:43:56.020Z,16.20
2022-08-29T04:44:58.163Z,16.10
2022-08-29T04:46:00.298Z,16.20
2022-08-29T04:47:01.808Z,16.10
2022-08-29T04:48:04.464Z,16.10
2022-08-29T04:49:05.951Z,16.00
2022-08-29T04:50:10.630Z,16.00
2022-08-29T04:51:12.074Z,15.90
2022-08-29T04:52:14.067Z,15.90
2022-08-29T04:53:15.539Z,15.80
2022-08-29T04:54:17.410Z,15.80
2022-08-29T04:55:24.504Z,15.80
2022-08-29T04:56:27.247Z,15.80
2022-08-29T04:57:29.314Z,15.90
2022-08-29T04:58:31.501Z,15.90
2022-08-29T04:59:33.324Z,15.90
2022-08-29T05:00:34.880Z,15.90
2022-08-29T05:01:36.673Z,15.80
2022-08-29T05:02:40.016Z,15.80
2022-08-29T05:03:41.694Z,15.80
2022-08-29T05:04:44.004Z,15.90
2022-08-29T05:05:45.529Z,15.90
2022-08-29T05:06:46.942Z,16.00
2022-08-29T05:07:48.683Z,16.10
2022-08-29T05:08:59.036Z,16.00
2022-08-29T05:10:06.926Z,16.10
2022-08-29T05:11:12.959Z,16.10
2022-08-29T05:12:14.771Z,16.00
2022-08-29T05:13:16.333Z,16.00
2022-08-29T05:14:18.124Z,16.00
2022-08-29T05:15:20.211Z,16.00
2022-08-29T05:16:21.763Z,16.00
2022-08-29T05:17:24.282Z,16.00
2022-08-29T05:18:26.199Z,16.00
2022-08-29T05:19:28.096Z,16.10
2022-08-29T05:20:38.903Z,16.10
2022-08-29T05:21:40.832Z,16.10
2022-08-29T05:22:42.978Z,16.10
2022-08-29T05:23:44.465Z,16.10
2022-08-29T05:24:47.228Z,16.10
2022-08-29T05:25:59.890Z,16.00
2022-08-29T05:27:01.393Z,16.00
2022-08-29T05:28:03.917Z,16.00
2022-08-29T05:29:09.513Z,16.00
2022-08-29T05:30:11.519Z,16.00
2022-08-29T05:31:14.669Z,16.10
2022-08-29T05:32:17.551Z,16.10
2022-08-29T05:33:19.534Z,16.10
2022-08-29T05:34:33.892Z,16.10
2022-08-29T05:35:36.103Z,16.10
2022-08-29T05:36:37.592Z,16.10
2022-08-29T05:37:39.087Z,16.10
2022-08-29T05:38:40.675Z,16.10
2022-08-29T05:39:42.677Z,16.10
2022-08-29T05:40:44.197Z,16.10
2022-08-29T05:41:46.266Z,16.10
2022-08-29T05:42:48.207Z,16.20
2022-08-29T05:43:51.206Z,16.20
2022-08-29T05:44:52.874Z,16.30
2022-08-29T05:46:02.970Z,16.30
2022-08-29T05:47:07.653Z,16.30
2022-08-29T05:48:10.137Z,16.30
2022-08-29T05:49:11.662Z,16.30
2022-08-29T05:50:16.822Z,16.30
2022-08-29T05:51:20.848Z,16.30
2022-08-29T05:52:22.791Z,16.30
2022-08-29T05:53:25.113Z,16.30
2022-08-29T05:54:30.096Z,16.30
2022-08-29T05:55:31.873Z,16.30
2022-08-29T05:56:33.351Z,16.40
2022-08-29T05:57:35.307Z,16.40
2022-08-29T05:58:37.161Z,16.50
2022-08-29T05:59:39.020Z,16.40
2022-08-29T06:00:42.443Z,16.40
2022-08-29T06:01:46.140Z,16.40
2022-08-29T06:02:48.120Z,16.40
2022-08-29T06:03:53.950Z,16.40
2022-08-29T06:04:57.450Z,16.50
2022-08-29T06:05:58.978Z,16.50
2022-08-29T06:07:00.998Z,16.50
2022-08-29T06:08:02.797Z,16.50
2022-08-29T06:09:05.021Z,16.60
2022-08-29T06:10:09.067Z,16.50
2022-08-29T06:11:15.649Z,16.50
2022-08-29T06:12:17.719Z,16.60
2022-08-29T06:13:19.197Z,16.60
2022-08-29T06:14:21.294Z,16.70
2022-08-29T06:15:23.589Z,16.80
2022-08-29T06:16:27.133Z,16.80
2022-08-29T06:17:28.637Z,16.80
2022-08-29T06:18:36.109Z,16.90
2022-08-29T06:19:39.512Z,17.00
2022-08-29T06:20:41.316Z,17.00
2022-08-29T06:21:42.794Z,17.00
2022-08-29T06:22:44.282Z,17.10
2022-08-29T06:23:46.924Z,17.10
2022-08-29T06:24:51.686Z,17.20
2022-08-29T06:25:59.915Z,17.40
2022-08-29T06:27:02.548Z,17.30
2022-08-29T06:28:04.435Z,17.30
2022-08-29T06:29:08.468Z,17.30
2022-08-29T06:30:10.133Z,17.40
2022-08-29T06:31:17.766Z,17.40
2022-08-29T06:32:19.562Z,17.30
2022-08-29T06:33:21.110Z,17.30
2022-08-29T06:34:23.470Z,17.20
2022-08-29T06:35:25.233Z,17.10
2022-08-29T06:36:27.769Z,17.00
2022-08-29T06:37:29.733Z,16.90
2022-08-29T06:38:31.451Z,16.90
2022-08-29T06:39:33.483Z,16.80
2022-08-29T06:40:34.966Z,16.80
2022-08-29T06:41:38.422Z,16.80
2022-08-29T06:42:40.927Z,16.80
2022-08-29T06:43:43.947Z,16.90
2022-08-29T06:44:45.762Z,16.90
2022-08-29T06:45:47.222Z,16.90
2022-08-29T06:46:49.787Z,17.00
2022-08-29T06:47:51.511Z,17.00
2022-08-29T06:48:53.817Z,17.00
2022-08-29T06:49:55.680Z,17.00
2022-08-29T06:50:57.653Z,17.10
2022-08-29T06:51:59.714Z,17.10
2022-08-29T06:53:26.500Z,17.10
2022-08-29T06:54:25.504Z,17.20
2022-08-29T06:55:30.187Z,17.20
2022-08-29T06:56:31.998Z,17.30
2022-08-29T06:57:33.474Z,17.30
2022-08-29T06:58:36.168Z,17.40
2022-08-29T06:59:37.786Z,17.50
2022-08-29T07:00:47.477Z,17.50
2022-08-29T07:01:51.694Z,17.60
2022-08-29T07:02:53.928Z,17.70
2022-08-29T07:03:56.880Z,17.70
2022-08-29T07:04:58.881Z,17.70
2022-08-29T07:06:00.485Z,17.80
2022-08-29T07:07:01.982Z,17.80
2022-08-29T07:08:03.920Z,17.80
2022-08-29T07:09:06.305Z,17.80
2022-08-29T07:10:08.540Z,17.80
2022-08-29T07:11:11.548Z,17.90
2022-08-29T07:12:13.003Z,18.00
2022-08-29T07:13:14.596Z,18.10
2022-08-29T07:14:16.580Z,18.20
2022-08-29T07:15:19.155Z,18.20
2022-08-29T07:16:20.817Z,18.40
2022-08-29T07:17:25.668Z,18.30
2022-08-29T07:18:27.777Z,18.30
2022-08-29T07:19:29.534Z,18.40
2022-08-29T07:20:31.253Z,18.50
2022-08-29T07:21:33.508Z,18.50
2022-08-29T07:22:35.557Z,18.70
2022-08-29T07:23:37.539Z,18.70
2022-08-29T07:24:39.118Z,18.70
2022-08-29T07:25:40.880Z,18.70
2022-08-29T07:26:43.741Z,18.70
2022-08-29T07:27:46.097Z,18.70
2022-08-29T07:28:55.837Z,18.60
2022-08-29T07:29:57.870Z,18.60
2022-08-29T07:30:59.373Z,18.70
2022-08-29T07:32:02.364Z,18.70
2022-08-29T07:33:03.968Z,18.70
2022-08-29T07:34:06.284Z,18.70
2022-08-29T07:35:11.566Z,18.70
2022-08-29T07:36:15.138Z,18.80
2022-08-29T07:37:16.630Z,18.80
2022-08-29T07:38:18.152Z,18.70
2022-08-29T07:39:20.439Z,18.70
2022-08-29T07:40:22.380Z,18.70
2022-08-29T07:41:25.170Z,18.80
2022-08-29T07:42:27.856Z,18.80
2022-08-29T07:43:29.626Z,18.90
2022-08-29T07:44:34.359Z,18.90
2022-08-29T07:45:39.152Z,18.90
2022-08-29T07:46:41.355Z,19.00
2022-08-29T07:47:42.815Z,19.00
2022-08-29T07:48:45.699Z,19.00
2022-08-29T07:49:47.241Z,19.10
2022-08-29T07:50:49.986Z,19.20
2022-08-29T07:51:53.524Z,19.30
2022-08-29T07:52:55.069Z,19.30
2022-08-29T07:53:58.160Z,19.40
2022-08-29T07:55:00.161Z,19.50
2022-08-29T07:56:06.809Z,19.50
2022-08-29T07:57:08.354Z,19.60
2022-08-29T07:58:10.830Z,19.50
2022-08-29T07:59:12.698Z,19.50
2022-08-29T08:00:14.731Z,19.40
2022-08-29T08:01:20.983Z,19.50
2022-08-29T08:02:23.257Z,19.50
2022-08-29T08:03:27.095Z,19.60
2022-08-29T08:04:28.554Z,19.70
2022-08-29T08:05:30.819Z,19.90
2022-08-29T08:06:34.502Z,20.00
2022-08-29T08:07:40.069Z,20.00
2022-08-29T08:08:41.845Z,20.10
2022-08-29T08:09:43.328Z,20.20
2022-08-29T08:10:47.878Z,20.30
2022-08-29T08:11:53.479Z,20.30
2022-08-29T08:12:54.981Z,20.40
2022-08-29T08:13:57.480Z,20.40
2022-08-29T08:14:59.073Z,20.30
2022-08-29T08:16:11.584Z,20.30
2022-08-29T08:17:13.060Z,20.30
2022-08-29T08:18:15.266Z,20.30
2022-08-29T08:19:18.214Z,20.40
2022-08-29T08:20:19.855Z,20.30
2022-08-29T08:21:22.557Z,20.40
2022-08-29T08:22:24.011Z,20.40
2022-08-29T08:23:25.994Z,20.50
2022-08-29T08:24:27.506Z,20.50
2022-08-29T08:25:29.369Z,20.60
2022-08-29T08:26:31.111Z,20.60
2022-08-29T08:27:33.105Z,20.60
2022-08-29T08:28:35.299Z,20.70
2022-08-29T08:29:37.170Z,20.70
2022-08-29T08:30:38.987Z,20.70
2022-08-29T08:31:45.780Z,20.70
2022-08-29T08:32:54.096Z,20.80
2022-08-29T08:33:56.643Z,20.90
2022-08-29T08:34:58.124Z,21.00
2022-08-29T08:35:59.603Z,20.80
2022-08-29T08:37:01.649Z,20.80
2022-08-29T08:38:04.127Z,20.90
2022-08-29T08:39:05.715Z,20.80
2022-08-29T08:40:08.152Z,20.90
2022-08-29T08:41:29.303Z,20.90
2022-08-29T08:42:42.360Z,20.80
2022-08-29T08:43:48.960Z,20.90
2022-08-29T08:45:05.991Z,20.90
2022-08-29T08:46:08.236Z,20.90
2022-08-29T08:47:12.573Z,20.80
2022-08-29T08:48:26.011Z,20.90
2022-08-29T08:49:36.689Z,21.00
2022-08-29T08:50:54.900Z,21.10
2022-08-29T08:52:03.675Z,21.10
2022-08-29T08:53:22.061Z,21.10
2022-08-29T08:54:36.764Z,21.20
2022-08-29T08:55:42.820Z,21.00
2022-08-29T08:56:47.745Z,21.10
2022-08-29T08:58:12.696Z,21.10
2022-08-29T08:59:30.907Z,21.20
2022-08-29T09:00:43.148Z,21.30
2022-08-29T09:01:58.518Z,21.40
2022-08-29T09:03:13.035Z,21.40
2022-08-29T09:04:42.360Z,21.40
2022-08-29T09:06:18.909Z,21.50
2022-08-29T09:07:44.526Z,21.70
2022-08-29T09:08:55.508Z,21.80
2022-08-29T09:10:01.233Z,21.90
2022-08-29T09:11:13.337Z,21.90
2022-08-29T09:12:45.517Z,22.00
2022-08-29T09:14:06.048Z,21.70
2022-08-29T09:15:13.349Z,21.70
2022-08-29T09:16:27.434Z,21.70
2022-08-29T09:17:37.110Z,21.70
2022-08-29T09:18:41.612Z,21.80
2022-08-29T09:19:44.289Z,21.80
2022-08-29T09:20:46.172Z,22.00
2022-08-29T09:21:53.958Z,22.10
2022-08-29T09:23:22.372Z,22.10
2022-08-29T09:24:35.955Z,22.20
2022-08-29T09:25:37.629Z,22.30
2022-08-29T09:26:39.834Z,22.40
2022-08-29T09:27:41.448Z,22.30
2022-08-29T09:28:43.030Z,22.30
2022-08-29T09:29:45.514Z,22.20
2022-08-29T09:31:25.317Z,22.30
2022-08-29T09:32:27.248Z,22.40
2022-08-29T09:33:42.794Z,22.50
2022-08-29T09:35:08.040Z,22.40
2022-08-29T09:36:14.960Z,22.50
2022-08-29T09:37:37.110Z,22.50
2022-08-29T09:38:38.692Z,22.60
2022-08-29T09:39:53.914Z,22.60
2022-08-29T09:40:59.090Z,22.50
2022-08-29T09:42:00.953Z,22.50
2022-08-29T09:43:03.026Z,22.60
2022-08-29T09:44:05.228Z,22.70
2022-08-29T09:45:15.874Z,22.70
2022-08-29T09:46:24.958Z,22.60
2022-08-29T09:47:27.520Z,22.50
2022-08-29T09:48:32.183Z,22.50
2022-08-29T09:49:39.915Z,22.40
2022-08-29T09:50:42.568Z,22.40
2022-08-29T09:51:50.589Z,22.40
2022-08-29T09:53:00.657Z,22.40
2022-08-29T09:54:28.248Z,22.60
2022-08-29T09:55:29.748Z,22.60
2022-08-29T09:56:31.341Z,22.70
2022-08-29T09:57:33.541Z,22.70
2022-08-29T09:58:40.113Z,22.80
2022-08-29T10:00:05.077Z,22.80
2022-08-29T10:01:11.778Z,22.80
2022-08-29T10:02:44.169Z,22.90
2022-08-29T10:04:02.391Z,22.80
2022-08-29T10:05:12.086Z,22.80
2022-08-29T10:06:20.005Z,22.90
2022-08-29T10:07:30.783Z,22.90
2022-08-29T10:08:36.347Z,22.90
2022-08-29T10:09:37.926Z,22.80
2022-08-29T10:10:54.565Z,22.90
2022-08-29T10:12:04.233Z,22.90
2022-08-29T10:13:22.973Z,23.00
2022-08-29T10:14:54.744Z,23.00
2022-08-29T10:16:18.961Z,23.30
2022-08-29T10:17:57.017Z,23.30
2022-08-29T10:19:06.684Z,23.40
2022-08-29T10:20:11.624Z,23.40
2022-08-29T10:21:28.207Z,23.40
2022-08-29T10:22:33.249Z,23.30
2022-08-29T10:23:49.720Z,23.30
2022-08-29T10:25:18.568Z,23.40
2022-08-29T10:26:57.642Z,23.30
2022-08-29T10:28:29.683Z,23.50
2022-08-29T10:29:48.006Z,23.50
2022-08-29T10:31:01.713Z,23.60
2022-08-29T10:32:09.723Z,23.60
2022-08-29T10:33:33.523Z,23.60
2022-08-29T10:35:02.702Z,23.70
2022-08-29T10:36:12.741Z,23.70
2022-08-29T10:37:36.671Z,23.70
2022-08-29T10:38:45.796Z,23.90
2022-08-29T10:40:09.673Z,24.00
2022-08-29T10:41:32.612Z,24.10
2022-08-29T10:42:38.543Z,24.10
2022-08-29T10:43:51.713Z,24.10
2022-08-29T10:45:05.559Z,23.90
2022-08-29T10:46:16.798Z,23.80
2022-08-29T10:47:41.052Z,23.70
2022-08-29T10:48:49.028Z,23.90
2022-08-29T10:49:53.379Z,24.00
2022-08-29T10:51:25.333Z,24.10
2022-08-29T10:52:40.206Z,24.10
2022-08-29T10:53:46.069Z,24.00
2022-08-29T10:54:56.234Z,24.00
2022-08-29T10:56:07.339Z,24.00
2022-08-29T10:57:10.443Z,24.10
2022-08-29T10:58:23.315Z,24.10
2022-08-29T10:59:30.553Z,24.30
2022-08-29T11:00:43.962Z,24.30
2022-08-29T11:02:34.215Z,24.40
2022-08-29T11:03:55.352Z,24.50
2022-08-29T11:05:02.693Z,24.50
2022-08-29T11:06:27.091Z,24.60
2022-08-29T11:07:33.219Z,24.60
2022-08-29T11:09:15.597Z,24.70
2022-08-29T11:10:21.267Z,24.80
2022-08-29T11:11:25.404Z,24.90
2022-08-29T11:12:33.623Z,24.80
2022-08-29T11:13:45.244Z,24.90
2022-08-29T11:14:49.382Z,24.90
2022-08-29T11:16:21.336Z,25.00
2022-08-29T11:17:29.913Z,24.90
2022-08-29T11:19:22.207Z,24.90
2022-08-29T11:20:31.795Z,24.90
2022-08-29T11:21:59.143Z,24.90
2022-08-29T11:23:13.266Z,24.90
2022-08-29T11:24:17.505Z,24.90
2022-08-29T11:25:20.488Z,24.90
2022-08-29T11:26:40.522Z,24.90
2022-08-29T11:28:00.426Z,25.10
2022-08-29T11:29:13.216Z,25.10
2022-08-29T11:30:27.830Z,25.10
2022-08-29T11:31:46.602Z,25.20
2022-08-29T11:33:00.159Z,25.30
2022-08-29T11:34:06.345Z,25.30
2022-08-29T11:35:45.246Z,25.30
2022-08-29T11:36:55.443Z,25.30
2022-08-29T11:38:14.474Z,25.30
2022-08-29T11:39:42.647Z,25.30
2022-08-29T11:44:17.008Z,25.50
2022-08-29T11:45:35.690Z,25.60
2022-08-29T11:46:49.394Z,25.80
2022-08-29T11:48:10.334Z,25.90
2022-08-29T11:49:38.834Z,26.00
2022-08-29T11:50:40.714Z,26.10
2022-08-29T11:51:43.191Z,26.10
2022-08-29T11:53:09.880Z,26.10
2022-08-29T11:54:26.653Z,26.10
2022-08-29T11:55:32.649Z,26.10
2022-08-29T11:56:34.122Z,26.20
2022-08-29T11:57:35.686Z,26.30
2022-08-29T11:58:42.874Z,26.30
2022-08-29T11:59:56.617Z,26.40
2022-08-29T12:00:59.541Z,26.40
2022-08-29T12:02:01.521Z,26.40
2022-08-29T12:03:14.985Z,26.60
2022-08-29T12:05:01.383Z,26.40
2022-08-29T12:06:12.348Z,26.50
2022-08-29T12:07:13.871Z,26.40
2022-08-29T12:08:37.368Z,26.50
2022-08-29T12:09:53.715Z,26.50
2022-08-29T12:10:56.230Z,26.50
2022-08-29T12:12:08.609Z,26.50
2022-08-29T12:13:10.540Z,26.50
2022-08-29T12:14:38.046Z,26.60
2022-08-29T12:15:54.199Z,26.80
2022-08-29T12:16:56.151Z,26.90
2022-08-29T12:18:02.881Z,26.90
2022-08-29T12:19:05.082Z,27.00
2022-08-29T12:20:38.130Z,27.10
2022-08-29T12:21:39.604Z,27.00
2022-08-29T12:22:55.508Z,27.10
2022-08-29T12:23:57.320Z,27.20
2022-08-29T12:24:58.817Z,27.20
2022-08-29T12:26:22.044Z,27.10
2022-08-29T12:27:55.846Z,26.90
2022-08-29T12:29:00.167Z,27.20
2022-08-29T12:30:02.179Z,27.20
2022-08-29T12:31:24.582Z,27.10
2022-08-29T12:32:45.874Z,27.20
2022-08-29T12:33:58.412Z,27.20
2022-08-29T12:35:27.417Z,27.30
2022-08-29T12:36:51.940Z,27.20
2022-08-29T12:38:12.214Z,27.30
2022-08-29T12:39:38.969Z,27.30
2022-08-29T12:40:47.973Z,27.40
2022-08-29T12:42:21.377Z,27.50
2022-08-29T12:43:42.943Z,27.60
2022-08-29T12:44:48.425Z,27.70
2022-08-29T12:45:51.195Z,27.80
2022-08-29T12:47:02.450Z,27.80
2022-08-29T12:48:12.566Z,27.80
2022-08-29T12:49:24.580Z,27.90
2022-08-29T12:50:30.448Z,27.90
2022-08-29T12:51:41.141Z,28.00
2022-08-29T12:52:42.896Z,28.10
2022-08-29T12:53:49.868Z,28.10
2022-08-29T12:54:56.134Z,28.10
2022-08-29T12:56:00.707Z,28.10
2022-08-29T12:57:03.353Z,28.10
2022-08-29T12:58:05.126Z,28.00
2022-08-29T12:59:06.924Z,28.00
2022-08-29T13:00:15.810Z,28.00
2022-08-29T13:01:22.576Z,28.00
2022-08-29T13:02:31.752Z,28.00
2022-08-29T13:03:33.638Z,28.00
2022-08-29T13:04:36.699Z,28.00
2022-08-29T13:05:40.347Z,28.10
2022-08-29T13:07:05.496Z,28.10
2022-08-29T13:08:13.672Z,28.00
2022-08-29T13:09:30.043Z,28.10
2022-08-29T13:10:31.542Z,28.00
2022-08-29T13:11:33.555Z,28.00
2022-08-29T13:12:36.072Z,28.00
2022-08-29T13:13:37.978Z,28.00
2022-08-29T13:15:04.182Z,28.00
2022-08-29T13:16:08.551Z,28.10
2022-08-29T13:17:15.333Z,28.00
2022-08-29T13:18:17.470Z,28.00
2022-08-29T13:19:22.035Z,28.00
2022-08-29T13:20:43.032Z,28.10
2022-08-29T13:21:45.259Z,28.20
2022-08-29T13:22:46.725Z,28.30
2022-08-29T13:24:19.280Z,28.40
2022-08-29T13:25:20.826Z,28.40
2022-08-29T13:26:24.669Z,28.40
2022-08-29T13:27:26.218Z,28.40
2022-08-29T13:28:46.577Z,28.50
2022-08-29T13:29:48.495Z,28.50
2022-08-29T13:31:10.990Z,28.70
2022-08-29T13:32:23.894Z,28.70
2022-08-29T13:33:35.594Z,28.80
2022-08-29T13:34:37.990Z,28.80
2022-08-29T13:35:39.478Z,28.90
2022-08-29T13:36:59.092Z,28.80
2022-08-29T13:38:26.321Z,28.80
2022-08-29T13:39:34.436Z,28.80
2022-08-29T13:40:50.550Z,28.70
2022-08-29T13:41:57.697Z,28.70
2022-08-29T13:43:01.103Z,28.70
2022-08-29T13:44:02.901Z,28.70
2022-08-29T13:45:09.340Z,28.80
2022-08-29T13:46:15.189Z,28.80
2022-08-29T13:47:20.542Z,28.90
2022-08-29T13:48:26.867Z,28.90
2022-08-29T13:49:31.633Z,29.00
2022-08-29T13:50:33.130Z,29.00
2022-08-29T13:51:34.710Z,29.00
2022-08-29T13:52:36.499Z,29.10
2022-08-29T13:53:38.393Z,29.10
2022-08-29T13:54:42.283Z,29.20
2022-08-29T13:55:44.066Z,29.00
2022-08-29T13:56:50.122Z,29.10
2022-08-29T13:57:53.497Z,29.10
2022-08-29T13:58:55.505Z,29.00
2022-08-29T14:00:01.419Z,28.90
2022-08-29T14:02:29.578Z,29.00
2022-08-29T14:03:31.244Z,29.10
2022-08-29T14:04:38.571Z,29.20
2022-08-29T14:05:41.229Z,29.20
2022-08-29T14:06:43.089Z,29.20
2022-08-29T14:07:45.829Z,29.30
2022-08-29T14:08:48.418Z,29.30
2022-08-29T14:09:51.070Z,29.40
2022-08-29T14:10:52.643Z,29.40
2022-08-29T14:11:54.214Z,29.40
2022-08-29T14:12:55.711Z,29.40
2022-08-29T14:13:57.172Z,29.50
2022-08-29T14:14:59.149Z,29.50
2022-08-29T14:16:01.223Z,29.50
2022-08-29T14:17:02.830Z,29.60
2022-08-29T14:18:05.051Z,29.60
2022-08-29T14:19:06.566Z,29.60
2022-08-29T14:20:09.838Z,29.50
2022-08-29T14:21:12.050Z,29.50